sensor_id;sensor_type;location;lat;lon;timestamp;P1;durP1;ratioP1;P2;durP2;ratioP2
59263;SDS011;45030;42.720;23.344;2022-12-07T00:01:15;46.95;;;22.52;;
59263;SDS011;45030;42.720;23.344;2022-12-07T00:03:43;45.80;;;22.55;;
59263;SDS011;45030;42.720;23.344;2022-12-07T00:06:11;32.75;;;16.08;;
59263;SDS011;45030;42.720;23.344;2022-12-07T00:08:36;38.72;;;18.15;;
59263;SDS011;45030;42.720;23.344;2022-12-07T00:13:27;29.35;;;14.90;;
59263;SDS011;45030;42.720;23.344;2022-12-07T00:15:53;31.30;;;16.48;;
59263;SDS011;45030;42.720;23.344;2022-12-07T00:18:19;35.60;;;18.10;;
59263;SDS011;45030;42.720;23.344;2022-12-07T00:20:44;28.73;;;16.08;;
59263;SDS011;45030;42.720;23.344;2022-12-07T00:23:09;27.80;;;14.63;;
59263;SDS011;45030;42.720;23.344;2022-12-07T00:25:34;28.83;;;14.02;;
59263;SDS011;45030;42.720;23.344;2022-12-07T00:27:59;28.33;;;14.25;;
59263;SDS011;45030;42.720;23.344;2022-12-07T00:30:25;32.55;;;15.10;;
59263;SDS011;45030;42.720;23.344;2022-12-07T00:32:50;33.30;;;16.40;;
59263;SDS011;45030;42.720;23.344;2022-12-07T00:35:15;33.30;;;14.85;;
59263;SDS011;45030;42.720;23.344;2022-12-07T00:37:40;30.25;;;15.13;;
59263;SDS011;45030;42.720;23.344;2022-12-07T00:40:06;35.33;;;14.45;;
59263;SDS011;45030;42.720;23.344;2022-12-07T00:42:31;32.90;;;15.55;;
59263;SDS011;45030;42.720;23.344;2022-12-07T00:44:57;28.23;;;14.18;;
59263;SDS011;45030;42.720;23.344;2022-12-07T00:47:22;31.38;;;15.38;;
59263;SDS011;45030;42.720;23.344;2022-12-07T00:49:47;28.30;;;14.15;;
59263;SDS011;45030;42.720;23.344;2022-12-07T00:52:12;31.17;;;16.13;;
59263;SDS011;45030;42.720;23.344;2022-12-07T00:54:38;36.63;;;15.32;;
59263;SDS011;45030;42.720;23.344;2022-12-07T00:57:03;30.73;;;16.73;;
59263;SDS011;45030;42.720;23.344;2022-12-07T00:59:28;30.45;;;14.30;;
59263;SDS011;45030;42.720;23.344;2022-12-07T01:01:53;27.15;;;14.80;;
59263;SDS011;45030;42.720;23.344;2022-12-07T01:04:19;27.63;;;12.75;;
59263;SDS011;45030;42.720;23.344;2022-12-07T01:06:44;27.98;;;14.93;;
59263;SDS011;45030;42.720;23.344;2022-12-07T01:09:09;29.85;;;13.55;;
59263;SDS011;45030;42.720;23.344;2022-12-07T01:11:34;29.40;;;13.60;;
59263;SDS011;45030;42.720;23.344;2022-12-07T01:14:00;31.25;;;16.83;;
59263;SDS011;45030;42.720;23.344;2022-12-07T01:16:26;45.35;;;18.92;;
59263;SDS011;45030;42.720;23.344;2022-12-07T01:18:52;32.00;;;15.82;;
59263;SDS011;45030;42.720;23.344;2022-12-07T01:21:19;31.95;;;16.52;;
59263;SDS011;45030;42.720;23.344;2022-12-07T01:23:46;35.80;;;16.20;;
59263;SDS011;45030;42.720;23.344;2022-12-07T01:26:12;30.27;;;14.88;;
59263;SDS011;45030;42.720;23.344;2022-12-07T01:28:38;29.15;;;13.93;;
59263;SDS011;45030;42.720;23.344;2022-12-07T01:31:04;30.67;;;14.52;;
59263;SDS011;45030;42.720;23.344;2022-12-07T01:33:35;32.38;;;16.17;;
59263;SDS011;45030;42.720;23.344;2022-12-07T01:36:22;26.55;;;12.55;;
59263;SDS011;45030;42.720;23.344;2022-12-07T01:38:46;29.25;;;13.25;;
59263;SDS011;45030;42.720;23.344;2022-12-07T01:41:12;25.58;;;12.82;;
59263;SDS011;45030;42.720;23.344;2022-12-07T01:46:21;34.15;;;15.48;;
59263;SDS011;45030;42.720;23.344;2022-12-07T01:48:47;29.92;;;14.55;;
59263;SDS011;45030;42.720;23.344;2022-12-07T01:51:12;37.60;;;18.33;;
59263;SDS011;45030;42.720;23.344;2022-12-07T01:53:39;44.63;;;21.40;;
59263;SDS011;45030;42.720;23.344;2022-12-07T01:56:06;39.55;;;16.40;;
59263;SDS011;45030;42.720;23.344;2022-12-07T01:58:32;29.58;;;14.85;;
59263;SDS011;45030;42.720;23.344;2022-12-07T02:00:58;29.75;;;14.30;;
59263;SDS011;45030;42.720;23.344;2022-12-07T02:03:29;33.03;;;14.63;;
59263;SDS011;45030;42.720;23.344;2022-12-07T02:05:56;33.00;;;16.00;;
59263;SDS011;45030;42.720;23.344;2022-12-07T02:08:22;29.23;;;13.88;;
59263;SDS011;45030;42.720;23.344;2022-12-07T02:10:47;33.67;;;15.43;;
59263;SDS011;45030;42.720;23.344;2022-12-07T02:13:16;35.90;;;15.45;;
59263;SDS011;45030;42.720;23.344;2022-12-07T02:20:41;30.45;;;15.32;;
59263;SDS011;45030;42.720;23.344;2022-12-07T02:31:08;36.80;;;17.63;;
59263;SDS011;45030;42.720;23.344;2022-12-07T02:33:36;40.70;;;19.58;;
59263;SDS011;45030;42.720;23.344;2022-12-07T02:36:08;33.40;;;18.13;;
59263;SDS011;45030;42.720;23.344;2022-12-07T02:38:40;32.28;;;15.48;;
59263;SDS011;45030;42.720;23.344;2022-12-07T02:41:20;33.30;;;15.77;;
59263;SDS011;45030;42.720;23.344;2022-12-07T02:43:54;30.95;;;15.63;;
59263;SDS011;45030;42.720;23.344;2022-12-07T02:46:21;36.95;;;17.80;;
59263;SDS011;45030;42.720;23.344;2022-12-07T02:48:47;50.78;;;26.00;;
59263;SDS011;45030;42.720;23.344;2022-12-07T02:51:14;38.38;;;17.70;;
59263;SDS011;45030;42.720;23.344;2022-12-07T02:53:42;43.72;;;17.80;;
59263;SDS011;45030;42.720;23.344;2022-12-07T02:56:43;48.20;;;21.83;;
59263;SDS011;45030;42.720;23.344;2022-12-07T03:09:28;41.78;;;20.95;;
59263;SDS011;45030;42.720;23.344;2022-12-07T03:12:01;41.15;;;20.40;;
59263;SDS011;45030;42.720;23.344;2022-12-07T03:14:30;35.17;;;19.23;;
59263;SDS011;45030;42.720;23.344;2022-12-07T03:17:05;34.70;;;18.60;;
59263;SDS011;45030;42.720;23.344;2022-12-07T03:19:34;36.65;;;17.02;;
59263;SDS011;45030;42.720;23.344;2022-12-07T03:22:01;38.72;;;18.85;;
59263;SDS011;45030;42.720;23.344;2022-12-07T03:24:29;35.88;;;16.65;;
59263;SDS011;45030;42.720;23.344;2022-12-07T03:27:01;33.65;;;17.73;;
59263;SDS011;45030;42.720;23.344;2022-12-07T03:29:32;33.50;;;17.00;;
59263;SDS011;45030;42.720;23.344;2022-12-07T03:32:04;32.28;;;17.52;;
59263;SDS011;45030;42.720;23.344;2022-12-07T03:34:39;35.63;;;18.27;;
59263;SDS011;45030;42.720;23.344;2022-12-07T03:37:50;43.80;;;18.75;;
59263;SDS011;45030;42.720;23.344;2022-12-07T03:42:20;40.08;;;18.90;;
59263;SDS011;45030;42.720;23.344;2022-12-07T03:44:45;43.10;;;17.23;;
59263;SDS011;45030;42.720;23.344;2022-12-07T03:47:16;36.33;;;17.67;;
59263;SDS011;45030;42.720;23.344;2022-12-07T03:49:46;40.97;;;21.20;;
59263;SDS011;45030;42.720;23.344;2022-12-07T03:55:00;46.60;;;22.65;;
59263;SDS011;45030;42.720;23.344;2022-12-07T03:57:27;55.80;;;30.38;;
59263;SDS011;45030;42.720;23.344;2022-12-07T03:59:53;57.83;;;30.25;;
59263;SDS011;45030;42.720;23.344;2022-12-07T04:02:19;56.80;;;35.13;;
59263;SDS011;45030;42.720;23.344;2022-12-07T04:04:45;56.58;;;31.83;;
59263;SDS011;45030;42.720;23.344;2022-12-07T04:07:10;67.82;;;35.78;;
59263;SDS011;45030;42.720;23.344;2022-12-07T04:09:35;66.55;;;29.58;;
59263;SDS011;45030;42.720;23.344;2022-12-07T04:12:01;59.50;;;32.08;;
59263;SDS011;45030;42.720;23.344;2022-12-07T04:14:26;67.57;;;33.70;;
59263;SDS011;45030;42.720;23.344;2022-12-07T04:16:55;64.45;;;32.10;;
59263;SDS011;45030;42.720;23.344;2022-12-07T04:19:22;60.63;;;31.00;;
59263;SDS011;45030;42.720;23.344;2022-12-07T04:21:48;60.70;;;30.65;;
59263;SDS011;45030;42.720;23.344;2022-12-07T04:24:14;67.78;;;32.35;;
59263;SDS011;45030;42.720;23.344;2022-12-07T04:26:40;67.97;;;33.92;;
59263;SDS011;45030;42.720;23.344;2022-12-07T04:29:05;56.42;;;30.60;;
59263;SDS011;45030;42.720;23.344;2022-12-07T04:31:31;59.72;;;29.58;;
59263;SDS011;45030;42.720;23.344;2022-12-07T04:33:56;50.20;;;23.40;;
59263;SDS011;45030;42.720;23.344;2022-12-07T04:36:21;45.75;;;22.90;;
59263;SDS011;45030;42.720;23.344;2022-12-07T04:38:47;56.13;;;25.98;;
59263;SDS011;45030;42.720;23.344;2022-12-07T04:41:12;53.75;;;27.20;;
59263;SDS011;45030;42.720;23.344;2022-12-07T04:43:37;57.13;;;25.90;;
59263;SDS011;45030;42.720;23.344;2022-12-07T04:46:03;60.90;;;31.08;;
59263;SDS011;45030;42.720;23.344;2022-12-07T04:48:28;63.03;;;31.15;;
59263;SDS011;45030;42.720;23.344;2022-12-07T04:50:54;63.08;;;31.42;;
59263;SDS011;45030;42.720;23.344;2022-12-07T04:53:19;63.72;;;32.50;;
59263;SDS011;45030;42.720;23.344;2022-12-07T04:55:45;71.07;;;36.22;;
59263;SDS011;45030;42.720;23.344;2022-12-07T04:58:10;64.15;;;30.15;;
59263;SDS011;45030;42.720;23.344;2022-12-07T05:00:36;64.68;;;30.25;;
59263;SDS011;45030;42.720;23.344;2022-12-07T05:03:01;61.70;;;31.83;;
59263;SDS011;45030;42.720;23.344;2022-12-07T05:05:26;57.03;;;29.42;;
59263;SDS011;45030;42.720;23.344;2022-12-07T05:07:52;61.05;;;32.10;;
59263;SDS011;45030;42.720;23.344;2022-12-07T05:10:17;53.17;;;28.25;;
59263;SDS011;45030;42.720;23.344;2022-12-07T05:12:42;50.10;;;25.80;;
59263;SDS011;45030;42.720;23.344;2022-12-07T05:15:07;60.85;;;26.67;;
59263;SDS011;45030;42.720;23.344;2022-12-07T05:17:33;89.82;;;33.42;;
59263;SDS011;45030;42.720;23.344;2022-12-07T05:19:58;177.70;;;67.75;;
59263;SDS011;45030;42.720;23.344;2022-12-07T05:22:23;134.50;;;56.78;;
59263;SDS011;45030;42.720;23.344;2022-12-07T05:24:53;116.82;;;49.80;;
59263;SDS011;45030;42.720;23.344;2022-12-07T05:27:18;92.97;;;40.08;;
59263;SDS011;45030;42.720;23.344;2022-12-07T05:29:43;74.88;;;33.63;;
59263;SDS011;45030;42.720;23.344;2022-12-07T05:32:08;72.13;;;33.78;;
59263;SDS011;45030;42.720;23.344;2022-12-07T05:34:33;74.13;;;33.65;;
59263;SDS011;45030;42.720;23.344;2022-12-07T05:36:59;64.57;;;31.40;;
59263;SDS011;45030;42.720;23.344;2022-12-07T05:39:24;74.38;;;37.30;;
59263;SDS011;45030;42.720;23.344;2022-12-07T05:41:49;79.20;;;36.13;;
59263;SDS011;45030;42.720;23.344;2022-12-07T05:44:33;112.45;;;51.50;;
59263;SDS011;45030;42.720;23.344;2022-12-07T05:46:58;104.13;;;51.92;;
59263;SDS011;45030;42.720;23.344;2022-12-07T05:49:23;159.75;;;68.10;;
59263;SDS011;45030;42.720;23.344;2022-12-07T05:51:49;180.02;;;80.20;;
59263;SDS011;45030;42.720;23.344;2022-12-07T05:54:14;236.23;;;120.80;;
59263;SDS011;45030;42.720;23.344;2022-12-07T05:56:39;157.07;;;87.32;;
59263;SDS011;45030;42.720;23.344;2022-12-07T05:59:04;171.88;;;85.43;;
59263;SDS011;45030;42.720;23.344;2022-12-07T06:01:48;150.65;;;76.03;;
59263;SDS011;45030;42.720;23.344;2022-12-07T06:04:14;183.18;;;95.32;;
59263;SDS011;45030;42.720;23.344;2022-12-07T06:06:39;250.88;;;117.53;;
59263;SDS011;45030;42.720;23.344;2022-12-07T06:09:04;251.30;;;115.45;;
59263;SDS011;45030;42.720;23.344;2022-12-07T06:11:29;266.77;;;121.88;;
59263;SDS011;45030;42.720;23.344;2022-12-07T06:14:13;378.63;;;165.68;;
59263;SDS011;45030;42.720;23.344;2022-12-07T06:16:39;358.65;;;161.95;;
59263;SDS011;45030;42.720;23.344;2022-12-07T06:19:04;335.65;;;146.88;;
59263;SDS011;45030;42.720;23.344;2022-12-07T06:21:29;235.88;;;102.65;;
59263;SDS011;45030;42.720;23.344;2022-12-07T06:23:54;162.25;;;72.35;;
59263;SDS011;45030;42.720;23.344;2022-12-07T06:26:20;174.63;;;77.97;;
59263;SDS011;45030;42.720;23.344;2022-12-07T06:28:45;146.10;;;67.80;;
59263;SDS011;45030;42.720;23.344;2022-12-07T06:31:11;118.00;;;54.25;;
59263;SDS011;45030;42.720;23.344;2022-12-07T06:33:36;117.03;;;53.97;;
59263;SDS011;45030;42.720;23.344;2022-12-07T06:36:01;146.98;;;73.30;;
59263;SDS011;45030;42.720;23.344;2022-12-07T06:38:26;112.20;;;59.97;;
59263;SDS011;45030;42.720;23.344;2022-12-07T06:40:52;119.70;;;53.45;;
59263;SDS011;45030;42.720;23.344;2022-12-07T06:43:17;89.50;;;44.05;;
59263;SDS011;45030;42.720;23.344;2022-12-07T06:45:42;89.13;;;43.90;;
59263;SDS011;45030;42.720;23.344;2022-12-07T06:48:08;89.40;;;44.13;;
59263;SDS011;45030;42.720;23.344;2022-12-07T06:50:33;98.82;;;45.78;;
59263;SDS011;45030;42.720;23.344;2022-12-07T06:52:58;94.40;;;48.35;;
59263;SDS011;45030;42.720;23.344;2022-12-07T06:55:23;88.63;;;48.03;;
59263;SDS011;45030;42.720;23.344;2022-12-07T06:57:49;110.47;;;51.80;;
59263;SDS011;45030;42.720;23.344;2022-12-07T07:00:14;94.50;;;45.85;;
59263;SDS011;45030;42.720;23.344;2022-12-07T07:02:39;75.80;;;37.85;;
59263;SDS011;45030;42.720;23.344;2022-12-07T07:05:04;99.03;;;44.70;;
59263;SDS011;45030;42.720;23.344;2022-12-07T07:07:30;87.70;;;42.13;;
59263;SDS011;45030;42.720;23.344;2022-12-07T07:09:55;118.68;;;46.00;;
59263;SDS011;45030;42.720;23.344;2022-12-07T07:12:20;98.28;;;41.95;;
59263;SDS011;45030;42.720;23.344;2022-12-07T07:14:46;79.57;;;35.35;;
59263;SDS011;45030;42.720;23.344;2022-12-07T07:17:11;113.82;;;61.88;;
59263;SDS011;45030;42.720;23.344;2022-12-07T07:19:36;69.93;;;39.67;;
59263;SDS011;45030;42.720;23.344;2022-12-07T07:22:02;80.72;;;39.38;;
59263;SDS011;45030;42.720;23.344;2022-12-07T07:24:28;57.92;;;30.48;;
59263;SDS011;45030;42.720;23.344;2022-12-07T07:26:53;59.20;;;31.20;;
59263;SDS011;45030;42.720;23.344;2022-12-07T07:29:18;60.55;;;31.85;;
59263;SDS011;45030;42.720;23.344;2022-12-07T07:31:43;64.95;;;32.35;;
59263;SDS011;45030;42.720;23.344;2022-12-07T07:34:09;73.13;;;37.72;;
59263;SDS011;45030;42.720;23.344;2022-12-07T07:36:34;86.18;;;43.40;;
59263;SDS011;45030;42.720;23.344;2022-12-07T07:38:59;67.82;;;37.17;;
59263;SDS011;45030;42.720;23.344;2022-12-07T07:41:24;68.40;;;37.75;;
59263;SDS011;45030;42.720;23.344;2022-12-07T07:43:50;62.78;;;35.42;;
59263;SDS011;45030;42.720;23.344;2022-12-07T07:46:15;54.92;;;28.95;;
59263;SDS011;45030;42.720;23.344;2022-12-07T07:48:40;54.05;;;27.42;;
59263;SDS011;45030;42.720;23.344;2022-12-07T07:51:06;51.63;;;25.08;;
59263;SDS011;45030;42.720;23.344;2022-12-07T07:53:32;44.55;;;21.60;;
59263;SDS011;45030;42.720;23.344;2022-12-07T07:55:57;47.72;;;24.55;;
59263;SDS011;45030;42.720;23.344;2022-12-07T07:58:23;47.72;;;27.02;;
59263;SDS011;45030;42.720;23.344;2022-12-07T08:00:48;51.05;;;26.17;;
59263;SDS011;45030;42.720;23.344;2022-12-07T08:03:13;48.05;;;25.70;;
59263;SDS011;45030;42.720;23.344;2022-12-07T08:05:39;44.08;;;23.50;;
59263;SDS011;45030;42.720;23.344;2022-12-07T08:08:04;46.15;;;24.38;;
59263;SDS011;45030;42.720;23.344;2022-12-07T08:10:29;45.72;;;23.92;;
59263;SDS011;45030;42.720;23.344;2022-12-07T08:12:57;52.50;;;29.20;;
59263;SDS011;45030;42.720;23.344;2022-12-07T08:15:41;50.65;;;27.65;;
59263;SDS011;45030;42.720;23.344;2022-12-07T08:18:07;53.25;;;28.75;;
59263;SDS011;45030;42.720;23.344;2022-12-07T08:20:33;57.38;;;31.58;;
59263;SDS011;45030;42.720;23.344;2022-12-07T08:22:59;85.88;;;49.92;;
59263;SDS011;45030;42.720;23.344;2022-12-07T08:25:24;60.30;;;32.92;;
59263;SDS011;45030;42.720;23.344;2022-12-07T08:27:51;64.20;;;33.42;;
59263;SDS011;45030;42.720;23.344;2022-12-07T08:30:16;63.08;;;31.73;;
59263;SDS011;45030;42.720;23.344;2022-12-07T08:32:43;61.47;;;31.48;;
59263;SDS011;45030;42.720;23.344;2022-12-07T08:35:08;61.70;;;31.40;;
59263;SDS011;45030;42.720;23.344;2022-12-07T08:37:34;60.10;;;31.25;;
59263;SDS011;45030;42.720;23.344;2022-12-07T08:39:59;61.97;;;29.88;;
59263;SDS011;45030;42.720;23.344;2022-12-07T08:42:24;54.97;;;29.15;;
59263;SDS011;45030;42.720;23.344;2022-12-07T08:44:54;48.00;;;25.63;;
59263;SDS011;45030;42.720;23.344;2022-12-07T08:47:19;41.97;;;22.55;;
59263;SDS011;45030;42.720;23.344;2022-12-07T08:49:45;47.55;;;22.70;;
59263;SDS011;45030;42.720;23.344;2022-12-07T08:52:12;44.70;;;22.92;;
59263;SDS011;45030;42.720;23.344;2022-12-07T08:54:38;38.83;;;21.85;;
59263;SDS011;45030;42.720;23.344;2022-12-07T08:57:04;42.20;;;22.00;;
59263;SDS011;45030;42.720;23.344;2022-12-07T08:59:29;42.80;;;23.90;;
59263;SDS011;45030;42.720;23.344;2022-12-07T09:01:55;51.60;;;27.23;;
59263;SDS011;45030;42.720;23.344;2022-12-07T09:04:20;54.92;;;28.00;;
59263;SDS011;45030;42.720;23.344;2022-12-07T09:06:45;56.17;;;29.70;;
59263;SDS011;45030;42.720;23.344;2022-12-07T09:09:11;71.07;;;38.85;;
59263;SDS011;45030;42.720;23.344;2022-12-07T09:11:36;77.30;;;40.05;;
59263;SDS011;45030;42.720;23.344;2022-12-07T09:14:01;70.97;;;38.47;;
59263;SDS011;45030;42.720;23.344;2022-12-07T09:16:27;86.88;;;43.78;;
59263;SDS011;45030;42.720;23.344;2022-12-07T09:18:52;59.67;;;30.52;;
59263;SDS011;45030;42.720;23.344;2022-12-07T09:21:18;50.10;;;28.58;;
59263;SDS011;45030;42.720;23.344;2022-12-07T09:23:43;45.42;;;22.98;;
59263;SDS011;45030;42.720;23.344;2022-12-07T09:26:08;44.05;;;20.67;;
59263;SDS011;45030;42.720;23.344;2022-12-07T09:28:34;46.15;;;24.73;;
59263;SDS011;45030;42.720;23.344;2022-12-07T09:30:59;41.53;;;23.50;;
59263;SDS011;45030;42.720;23.344;2022-12-07T09:33:25;49.20;;;25.55;;
59263;SDS011;45030;42.720;23.344;2022-12-07T09:35:50;51.65;;;26.45;;
59263;SDS011;45030;42.720;23.344;2022-12-07T09:38:16;41.33;;;21.08;;
59263;SDS011;45030;42.720;23.344;2022-12-07T09:40:41;43.88;;;22.40;;
59263;SDS011;45030;42.720;23.344;2022-12-07T09:43:15;34.42;;;18.45;;
59263;SDS011;45030;42.720;23.344;2022-12-07T09:45:41;43.00;;;22.13;;
59263;SDS011;45030;42.720;23.344;2022-12-07T09:48:13;35.10;;;17.95;;
59263;SDS011;45030;42.720;23.344;2022-12-07T09:50:41;33.63;;;17.08;;
59263;SDS011;45030;42.720;23.344;2022-12-07T09:53:12;40.15;;;19.85;;
59263;SDS011;45030;42.720;23.344;2022-12-07T09:55:39;41.08;;;17.95;;
59263;SDS011;45030;42.720;23.344;2022-12-07T09:58:06;41.45;;;21.52;;
59263;SDS011;45030;42.720;23.344;2022-12-07T10:00:31;46.47;;;25.33;;
59263;SDS011;45030;42.720;23.344;2022-12-07T10:02:58;37.15;;;21.38;;
59263;SDS011;45030;42.720;23.344;2022-12-07T10:05:26;35.15;;;17.42;;
59263;SDS011;45030;42.720;23.344;2022-12-07T10:07:52;35.33;;;17.52;;
59263;SDS011;45030;42.720;23.344;2022-12-07T10:10:19;31.88;;;16.65;;
59263;SDS011;45030;42.720;23.344;2022-12-07T10:15:22;41.75;;;19.88;;
59263;SDS011;45030;42.720;23.344;2022-12-07T10:17:51;40.60;;;20.33;;
59263;SDS011;45030;42.720;23.344;2022-12-07T10:25:30;30.05;;;17.08;;
59263;SDS011;45030;42.720;23.344;2022-12-07T10:28:10;38.50;;;23.83;;
59263;SDS011;45030;42.720;23.344;2022-12-07T10:33:36;33.95;;;17.55;;
59263;SDS011;45030;42.720;23.344;2022-12-07T10:36:15;30.70;;;15.98;;
59263;SDS011;45030;42.720;23.344;2022-12-07T10:38:44;28.42;;;14.43;;
59263;SDS011;45030;42.720;23.344;2022-12-07T10:41:09;32.42;;;15.23;;
59263;SDS011;45030;42.720;23.344;2022-12-07T10:43:34;24.13;;;12.45;;
59263;SDS011;45030;42.720;23.344;2022-12-07T10:46:20;27.73;;;14.98;;
59263;SDS011;45030;42.720;23.344;2022-12-07T11:01:30;24.63;;;12.45;;
59263;SDS011;45030;42.720;23.344;2022-12-07T11:09:18;26.42;;;13.55;;
59263;SDS011;45030;42.720;23.344;2022-12-07T11:14:22;28.83;;;13.60;;
59263;SDS011;45030;42.720;23.344;2022-12-07T11:16:56;24.63;;;13.45;;
59263;SDS011;45030;42.720;23.344;2022-12-07T11:22:28;21.35;;;11.25;;
59263;SDS011;45030;42.720;23.344;2022-12-07T11:24:57;15.98;;;9.60;;
59263;SDS011;45030;42.720;23.344;2022-12-07T11:30:19;22.60;;;9.95;;
59263;SDS011;45030;42.720;23.344;2022-12-07T11:32:59;39.05;;;23.13;;
59263;SDS011;45030;42.720;23.344;2022-12-07T11:38:14;25.10;;;14.18;;
59263;SDS011;45030;42.720;23.344;2022-12-07T11:40:40;16.58;;;11.45;;
59263;SDS011;45030;42.720;23.344;2022-12-07T11:43:41;87.82;;;69.78;;
59263;SDS011;45030;42.720;23.344;2022-12-07T11:46:00;22.55;;;10.88;;
59263;SDS011;45030;42.720;23.344;2022-12-07T11:48:32;18.67;;;9.82;;
59263;SDS011;45030;42.720;23.344;2022-12-07T11:50:59;15.63;;;8.82;;
59263;SDS011;45030;42.720;23.344;2022-12-07T11:53:39;15.73;;;9.30;;
59263;SDS011;45030;42.720;23.344;2022-12-07T11:58:44;18.77;;;8.82;;
59263;SDS011;45030;42.720;23.344;2022-12-07T12:06:24;19.27;;;10.00;;
59263;SDS011;45030;42.720;23.344;2022-12-07T12:08:54;17.05;;;9.68;;
59263;SDS011;45030;42.720;23.344;2022-12-07T12:16:37;14.40;;;9.48;;
59263;SDS011;45030;42.720;23.344;2022-12-07T12:21:36;17.75;;;9.75;;
59263;SDS011;45030;42.720;23.344;2022-12-07T12:24:09;15.98;;;9.52;;
59263;SDS011;45030;42.720;23.344;2022-12-07T12:26:35;42.15;;;24.80;;
59263;SDS011;45030;42.720;23.344;2022-12-07T12:29:06;21.52;;;10.85;;
59263;SDS011;45030;42.720;23.344;2022-12-07T12:31:35;16.92;;;9.80;;
59263;SDS011;45030;42.720;23.344;2022-12-07T12:34:03;15.82;;;9.65;;
59263;SDS011;45030;42.720;23.344;2022-12-07T12:46:48;28.70;;;13.30;;
59263;SDS011;45030;42.720;23.344;2022-12-07T13:02:07;29.75;;;13.90;;
59263;SDS011;45030;42.720;23.344;2022-12-07T13:04:37;28.20;;;13.35;;
59263;SDS011;45030;42.720;23.344;2022-12-07T13:07:03;20.05;;;11.77;;
59263;SDS011;45030;42.720;23.344;2022-12-07T13:09:29;31.20;;;14.52;;
59263;SDS011;45030;42.720;23.344;2022-12-07T13:12:00;23.85;;;10.32;;
59263;SDS011;45030;42.720;23.344;2022-12-07T13:17:07;25.45;;;11.55;;
59263;SDS011;45030;42.720;23.344;2022-12-07T13:27:16;16.50;;;10.25;;
59263;SDS011;45030;42.720;23.344;2022-12-07T13:29:42;15.45;;;8.57;;
59263;SDS011;45030;42.720;23.344;2022-12-07T13:32:21;19.38;;;10.50;;
59263;SDS011;45030;42.720;23.344;2022-12-07T13:34:47;19.05;;;10.48;;
59263;SDS011;45030;42.720;23.344;2022-12-07T13:37:28;20.35;;;10.48;;
59263;SDS011;45030;42.720;23.344;2022-12-07T13:40:01;20.73;;;10.48;;
59263;SDS011;45030;42.720;23.344;2022-12-07T13:42:37;20.27;;;11.05;;
59263;SDS011;45030;42.720;23.344;2022-12-07T13:50:25;17.33;;;10.10;;
59263;SDS011;45030;42.720;23.344;2022-12-07T13:52:54;20.88;;;10.45;;
59263;SDS011;45030;42.720;23.344;2022-12-07T13:55:19;27.95;;;13.25;;
59263;SDS011;45030;42.720;23.344;2022-12-07T13:57:45;25.50;;;14.35;;
59263;SDS011;45030;42.720;23.344;2022-12-07T14:00:15;36.67;;;16.42;;
59263;SDS011;45030;42.720;23.344;2022-12-07T14:05:26;21.98;;;11.52;;
59263;SDS011;45030;42.720;23.344;2022-12-07T14:12:51;23.15;;;12.45;;
59263;SDS011;45030;42.720;23.344;2022-12-07T14:15:24;24.17;;;13.43;;
59263;SDS011;45030;42.720;23.344;2022-12-07T14:17:51;25.15;;;14.23;;
59263;SDS011;45030;42.720;23.344;2022-12-07T14:23:00;27.38;;;14.65;;
59263;SDS011;45030;42.720;23.344;2022-12-07T14:25:34;32.53;;;16.10;;
59263;SDS011;45030;42.720;23.344;2022-12-07T14:28:09;56.80;;;26.00;;
59263;SDS011;45030;42.720;23.344;2022-12-07T14:30:49;69.90;;;30.33;;
59263;SDS011;45030;42.720;23.344;2022-12-07T14:33:14;48.95;;;23.05;;
59263;SDS011;45030;42.720;23.344;2022-12-07T14:35:39;35.60;;;19.70;;
59263;SDS011;45030;42.720;23.344;2022-12-07T14:38:05;40.08;;;21.70;;
59263;SDS011;45030;42.720;23.344;2022-12-07T14:40:31;43.40;;;21.35;;
59263;SDS011;45030;42.720;23.344;2022-12-07T14:42:59;48.42;;;22.90;;
59263;SDS011;45030;42.720;23.344;2022-12-07T14:45:26;58.28;;;27.55;;
59263;SDS011;45030;42.720;23.344;2022-12-07T14:47:51;40.03;;;21.95;;
59263;SDS011;45030;42.720;23.344;2022-12-07T14:50:17;36.47;;;18.85;;
59263;SDS011;45030;42.720;23.344;2022-12-07T14:52:44;41.65;;;20.17;;
59263;SDS011;45030;42.720;23.344;2022-12-07T14:55:20;47.33;;;26.58;;
59263;SDS011;45030;42.720;23.344;2022-12-07T14:57:46;79.88;;;37.80;;
59263;SDS011;45030;42.720;23.344;2022-12-07T15:00:15;73.78;;;37.83;;
59263;SDS011;45030;42.720;23.344;2022-12-07T15:02:42;86.47;;;42.92;;
59263;SDS011;45030;42.720;23.344;2022-12-07T15:05:07;86.07;;;42.83;;
59263;SDS011;45030;42.720;23.344;2022-12-07T15:07:32;88.60;;;44.97;;
59263;SDS011;45030;42.720;23.344;2022-12-07T15:09:57;83.57;;;43.47;;
59263;SDS011;45030;42.720;23.344;2022-12-07T15:12:23;89.88;;;44.75;;
59263;SDS011;45030;42.720;23.344;2022-12-07T15:14:50;39.97;;;21.23;;
59263;SDS011;45030;42.720;23.344;2022-12-07T15:17:15;52.88;;;25.67;;
59263;SDS011;45030;42.720;23.344;2022-12-07T15:19:40;259.50;;;114.90;;
59263;SDS011;45030;42.720;23.344;2022-12-07T15:22:05;143.95;;;71.30;;
59263;SDS011;45030;42.720;23.344;2022-12-07T15:24:31;140.40;;;66.80;;
59263;SDS011;45030;42.720;23.344;2022-12-07T15:26:56;108.43;;;50.42;;
59263;SDS011;45030;42.720;23.344;2022-12-07T15:29:21;238.98;;;92.68;;
59263;SDS011;45030;42.720;23.344;2022-12-07T15:31:48;215.60;;;92.30;;
59263;SDS011;45030;42.720;23.344;2022-12-07T15:34:13;163.55;;;72.68;;
59263;SDS011;45030;42.720;23.344;2022-12-07T15:36:38;82.18;;;43.17;;
59263;SDS011;45030;42.720;23.344;2022-12-07T15:39:03;73.50;;;35.92;;
59263;SDS011;45030;42.720;23.344;2022-12-07T15:41:29;87.50;;;43.63;;
59263;SDS011;45030;42.720;23.344;2022-12-07T15:43:54;170.57;;;81.30;;
59263;SDS011;45030;42.720;23.344;2022-12-07T15:46:39;181.13;;;88.88;;
59263;SDS011;45030;42.720;23.344;2022-12-07T15:49:07;173.15;;;82.80;;
59263;SDS011;45030;42.720;23.344;2022-12-07T15:51:33;213.75;;;111.97;;
59263;SDS011;45030;42.720;23.344;2022-12-07T15:53:58;323.42;;;152.63;;
59263;SDS011;45030;42.720;23.344;2022-12-07T15:56:24;301.58;;;141.23;;
59263;SDS011;45030;42.720;23.344;2022-12-07T15:58:49;224.48;;;110.47;;
59263;SDS011;45030;42.720;23.344;2022-12-07T16:01:16;176.30;;;86.57;;
59263;SDS011;45030;42.720;23.344;2022-12-07T16:03:41;147.32;;;74.85;;
59263;SDS011;45030;42.720;23.344;2022-12-07T16:06:07;210.05;;;105.95;;
59263;SDS011;45030;42.720;23.344;2022-12-07T16:08:32;268.15;;;129.82;;
59263;SDS011;45030;42.720;23.344;2022-12-07T16:10:57;297.13;;;137.05;;
59263;SDS011;45030;42.720;23.344;2022-12-07T16:13:23;337.35;;;166.70;;
59263;SDS011;45030;42.720;23.344;2022-12-07T16:15:48;292.65;;;142.38;;
59263;SDS011;45030;42.720;23.344;2022-12-07T16:18:13;286.35;;;145.68;;
59263;SDS011;45030;42.720;23.344;2022-12-07T16:20:39;246.95;;;121.05;;
59263;SDS011;45030;42.720;23.344;2022-12-07T16:23:05;232.50;;;110.82;;
59263;SDS011;45030;42.720;23.344;2022-12-07T16:25:30;177.43;;;87.47;;